createdAt,value
2018-06-09T00:01:44.945Z,69.16
2018-06-09T00:04:12.845Z,72.65
2018-06-09T00:06:40.730Z,71.01
2018-06-09T00:09:08.760Z,70.28
2018-06-09T00:11:36.642Z,69.44
2018-06-09T00:14:04.517Z,72.75
2018-06-09T00:16:32.372Z,73.22
2018-06-09T00:19:00.343Z,70.14
2018-06-09T00:21:28.236Z,72.90
2018-06-09T00:23:56.129Z,74.45
2018-06-09T00:26:23.992Z,73.51
2018-06-09T00:28:51.877Z,72.68
2018-06-09T00:31:19.733Z,71.42
2018-06-09T00:33:47.697Z,71.97
2018-06-09T00:36:15.548Z,74.07
2018-06-09T00:38:43.466Z,74.03
2018-06-09T00:41:11.345Z,73.88
2018-06-09T00:43:39.289Z,73.55
2018-06-09T00:46:07.353Z,72.64
2018-06-09T00:48:35.217Z,72.16
2018-06-09T00:51:03.154Z,72.08
2018-06-09T00:53:31.044Z,73.08
2018-06-09T00:56:16.361Z,71.90
2018-06-09T00:58:44.185Z,71.95
2018-06-09T01:01:12.000Z,72.54
2018-06-09T01:03:39.873Z,73.71
2018-06-09T01:06:07.754Z,74.36
2018-06-09T01:08:35.657Z,74.11
2018-06-09T01:11:03.581Z,72.92
2018-06-09T01:13:31.533Z,72.30
2018-06-09T01:15:59.520Z,71.72
2018-06-09T01:18:27.340Z,72.07
2018-06-09T01:20:59.510Z,73.51
2018-06-09T01:23:27.481Z,72.73
2018-06-09T01:25:55.361Z,73.23
2018-06-09T01:28:24.146Z,71.35
2018-06-09T01:30:52.049Z,73.45
2018-06-09T01:33:19.909Z,72.64
2018-06-09T01:35:47.750Z,73.43
2018-06-09T01:38:15.557Z,74.05
2018-06-09T01:40:43.425Z,71.74
2018-06-09T01:43:11.466Z,74.03
2018-06-09T01:45:39.443Z,74.15
2018-06-09T01:48:07.293Z,73.50
2018-06-09T01:50:35.167Z,71.77
2018-06-09T01:53:02.961Z,72.07
2018-06-09T01:55:30.864Z,73.64
2018-06-09T01:57:58.709Z,73.94
2018-06-09T02:00:26.610Z,72.94
2018-06-09T02:02:58.364Z,73.20
2018-06-09T02:05:26.313Z,73.02
2018-06-09T02:07:54.282Z,73.34
2018-06-09T02:10:22.146Z,73.76
2018-06-09T02:12:50.093Z,73.79
2018-06-09T02:15:17.960Z,73.00
2018-06-09T02:17:45.824Z,75.74
2018-06-09T02:20:13.744Z,74.80
2018-06-09T02:22:41.568Z,73.82
2018-06-09T02:25:09.461Z,73.76
2018-06-09T02:27:37.396Z,74.22
2018-06-09T02:30:05.403Z,74.95
2018-06-09T02:32:33.293Z,73.60
2018-06-09T02:35:01.161Z,74.97
2018-06-09T02:37:29.026Z,75.32
2018-06-09T02:39:56.928Z,73.52
2018-06-09T02:42:24.797Z,74.80
2018-06-09T02:44:56.960Z,73.31
2018-06-09T02:47:24.824Z,74.12
2018-06-09T02:49:52.774Z,74.79
2018-06-09T02:52:20.677Z,72.96
2018-06-09T02:54:49.870Z,73.81
2018-06-09T02:57:18.825Z,75.39
2018-06-09T02:59:46.704Z,73.77
2018-06-09T03:02:14.547Z,73.64
2018-06-09T03:04:42.450Z,73.40
2018-06-09T03:07:10.283Z,76.29
2018-06-09T03:09:38.161Z,76.27
2018-06-09T03:12:06.022Z,74.28
2018-06-09T03:14:33.865Z,73.18
2018-06-09T03:17:01.892Z,76.12
2018-06-09T03:19:29.770Z,75.08
2018-06-09T03:21:57.668Z,75.39
2018-06-09T03:24:25.548Z,73.46
2018-06-09T03:26:53.384Z,72.43
2018-06-09T03:29:21.419Z,74.84
2018-06-09T03:31:49.261Z,75.42
2018-06-09T03:34:17.109Z,75.75
2018-06-09T03:36:45.014Z,75.10
2018-06-09T03:39:12.872Z,73.16
2018-06-09T03:41:40.686Z,75.89
2018-06-09T03:44:08.566Z,76.16
2018-06-09T03:46:36.413Z,76.05
2018-06-09T03:49:04.579Z,75.71
2018-06-09T03:51:32.446Z,74.10
2018-06-09T03:54:00.345Z,73.84
2018-06-09T03:56:28.228Z,76.03
2018-06-09T03:58:56.072Z,75.45
2018-06-09T04:01:23.910Z,76.96
2018-06-09T04:03:51.839Z,74.43
2018-06-09T04:06:19.674Z,76.18
2018-06-09T04:08:48.539Z,75.91
2018-06-09T04:11:16.300Z,75.49
2018-06-09T04:13:44.108Z,76.69
2018-06-09T04:16:11.997Z,77.51
2018-06-09T04:18:39.862Z,75.81
2018-06-09T04:21:07.733Z,76.43
2018-06-09T04:23:35.592Z,75.92
2018-06-09T04:26:03.405Z,75.00
2018-06-09T04:28:31.289Z,74.73
2018-06-09T04:30:59.107Z,75.12
2018-06-09T04:33:26.986Z,74.76
2018-06-09T04:35:54.853Z,75.15
2018-06-09T04:38:22.717Z,74.56
2018-06-09T04:40:50.636Z,73.73
2018-06-09T04:43:18.516Z,73.69
2018-06-09T04:45:46.402Z,73.32
2018-06-09T04:48:14.218Z,73.91
2018-06-09T04:50:42.069Z,72.73
2018-06-09T04:53:10.024Z,70.86
2018-06-09T04:55:37.925Z,68.78
2018-06-09T04:58:05.742Z,69.55
2018-06-09T05:00:34.831Z,65.59
2018-06-09T05:03:04.078Z,62.88
2018-06-09T05:05:33.377Z,61.76
2018-06-09T05:08:01.304Z,61.67
2018-06-09T05:10:29.426Z,59.91
2018-06-09T05:12:57.460Z,59.14
2018-06-09T05:15:25.265Z,58.48
2018-06-09T05:17:53.149Z,57.17
2018-06-09T05:20:21.011Z,53.86
2018-06-09T05:22:48.889Z,54.36
2018-06-09T05:25:16.826Z,52.99
2018-06-09T05:27:45.817Z,52.67
2018-06-09T05:30:13.726Z,51.62
2018-06-09T05:32:42.112Z,51.08
2018-06-09T05:35:10.085Z,51.37
2018-06-09T05:38:00.278Z,51.55
2018-06-09T05:40:28.182Z,52.41
2018-06-09T05:42:56.069Z,52.56
2018-06-09T05:45:23.944Z,52.86
2018-06-09T05:47:51.892Z,53.94
2018-06-09T05:50:19.714Z,54.21
2018-06-09T05:52:47.597Z,54.46
2018-06-09T05:55:19.270Z,54.09
2018-06-09T05:57:47.144Z,54.36
2018-06-09T06:00:15.256Z,54.44
2018-06-09T06:02:43.113Z,54.74
2018-06-09T06:05:11.085Z,54.28
2018-06-09T06:07:38.991Z,54.36
2018-06-09T06:10:06.925Z,53.83
2018-06-09T06:12:34.760Z,52.51
2018-06-09T06:15:02.629Z,53.33
2018-06-09T06:17:30.561Z,51.98
2018-06-09T06:19:58.367Z,53.70
2018-06-09T06:22:26.283Z,51.76
2018-06-09T06:24:54.137Z,51.18
2018-06-09T06:27:22.032Z,52.04
2018-06-09T06:29:49.925Z,48.98
2018-06-09T06:32:17.813Z,51.48
2018-06-09T06:34:45.677Z,49.98
2018-06-09T06:37:13.573Z,48.54
2018-06-09T06:39:41.438Z,48.61
2018-06-09T06:42:09.329Z,48.55
2018-06-09T06:44:37.196Z,48.64
2018-06-09T06:47:05.009Z,48.29
2018-06-09T06:49:32.900Z,47.94
2018-06-09T06:52:00.712Z,49.60
2018-06-09T06:54:28.564Z,47.58
2018-06-09T06:56:56.477Z,48.24
2018-06-09T06:59:25.009Z,47.45
2018-06-09T07:01:53.208Z,46.23
2018-06-09T07:04:21.041Z,46.94
2018-06-09T07:06:48.947Z,47.16
2018-06-09T07:09:16.828Z,47.05
2018-06-09T07:11:45.297Z,48.67
2018-06-09T07:14:14.014Z,47.24
2018-06-09T07:16:42.034Z,45.80
2018-06-09T07:19:11.941Z,45.95
2018-06-09T07:21:39.890Z,45.52
2018-06-09T07:24:07.777Z,45.69
2018-06-09T07:26:35.649Z,47.24
2018-06-09T07:29:04.701Z,46.38
2018-06-09T07:31:32.484Z,46.04
2018-06-09T07:34:00.373Z,45.99
2018-06-09T07:36:28.252Z,45.82
2018-06-09T07:38:56.160Z,45.92
2018-06-09T07:41:24.071Z,46.29
2018-06-09T07:43:52.413Z,45.53
2018-06-09T07:46:20.657Z,45.13
2018-06-09T07:48:48.541Z,46.09
2018-06-09T07:51:16.469Z,44.89
2018-06-09T07:53:44.762Z,44.85
2018-06-09T07:56:12.740Z,44.96
2018-06-09T07:58:40.641Z,45.58
2018-06-09T08:01:08.696Z,46.45
2018-06-09T08:03:36.591Z,46.57
2018-06-09T08:06:04.449Z,45.24
2018-06-09T08:08:32.313Z,44.90
2018-06-09T08:11:00.153Z,45.37
2018-06-09T08:13:28.906Z,46.54
2018-06-09T08:15:56.796Z,46.09
2018-06-09T08:18:25.232Z,47.16
2018-06-09T08:20:53.211Z,45.35
2018-06-09T08:23:21.064Z,46.28
2018-06-09T08:25:48.917Z,46.07
2018-06-09T08:28:17.205Z,46.37
2018-06-09T08:30:45.092Z,46.23
2018-06-09T08:33:13.932Z,45.23
2018-06-09T08:35:41.837Z,45.24
2018-06-09T08:38:09.707Z,45.88
2018-06-09T08:40:37.703Z,46.32
2018-06-09T08:43:05.524Z,45.76
2018-06-09T08:45:33.431Z,45.49
2018-06-09T08:48:01.301Z,46.47
2018-06-09T08:50:29.228Z,45.17
2018-06-09T08:52:57.096Z,45.34
2018-06-09T08:55:24.954Z,45.42
2018-06-09T08:57:52.910Z,45.71
2018-06-09T09:00:20.822Z,46.10
2018-06-09T09:02:48.730Z,45.75
2018-06-09T09:05:16.584Z,46.00
2018-06-09T09:07:45.094Z,45.66
2018-06-09T09:10:13.052Z,45.63
2018-06-09T09:12:40.888Z,46.16
2018-06-09T09:15:08.812Z,45.83
2018-06-09T09:17:36.717Z,45.43
2018-06-09T09:20:04.560Z,45.56
2018-06-09T09:22:32.500Z,45.88
2018-06-09T09:25:00.413Z,45.47
2018-06-09T09:27:28.304Z,44.65
2018-06-09T09:29:56.177Z,45.38
2018-06-09T09:32:24.090Z,46.19
2018-06-09T09:34:51.944Z,44.70
2018-06-09T09:37:19.753Z,44.11
2018-06-09T09:39:47.601Z,43.81
2018-06-09T09:42:15.457Z,43.80
2018-06-09T09:44:43.357Z,43.60
2018-06-09T09:47:11.240Z,42.32
2018-06-09T09:49:39.125Z,42.26
2018-06-09T09:52:06.933Z,40.33
2018-06-09T09:54:34.913Z,38.21
2018-06-09T09:57:02.760Z,34.56
2018-06-09T09:59:30.641Z,34.53
2018-06-09T10:01:58.520Z,33.48
2018-06-09T10:04:26.375Z,32.97
2018-06-09T10:06:54.282Z,31.57
2018-06-09T10:09:22.138Z,29.34
2018-06-09T10:11:49.980Z,29.00
2018-06-09T10:14:17.877Z,28.56
2018-06-09T10:16:45.784Z,28.41
2018-06-09T10:19:13.673Z,28.05
2018-06-09T10:21:41.584Z,28.03
2018-06-09T10:24:09.457Z,26.81
2018-06-09T10:26:37.478Z,25.87
2018-06-09T10:29:05.321Z,25.86
2018-06-09T10:31:33.142Z,26.83
2018-06-09T10:34:00.997Z,25.67
2018-06-09T10:36:28.910Z,25.63
2018-06-09T10:38:56.837Z,26.22
2018-06-09T10:41:25.064Z,24.89
2018-06-09T10:43:52.914Z,24.16
2018-06-09T10:46:20.793Z,23.80
2018-06-09T10:48:48.691Z,21.66
2018-06-09T10:51:16.559Z,21.73
2018-06-09T10:53:44.426Z,21.58
2018-06-09T10:56:12.328Z,20.40
2018-06-09T10:58:40.204Z,20.52
2018-06-09T11:01:08.056Z,21.28
2018-06-09T11:03:35.977Z,20.62
2018-06-09T11:06:03.993Z,20.38
2018-06-09T11:08:33.462Z,19.61
2018-06-09T11:11:01.912Z,19.70
2018-06-09T11:13:29.784Z,19.89
2018-06-09T11:15:57.587Z,19.80
2018-06-09T11:18:26.059Z,19.08
2018-06-09T11:20:53.845Z,18.33
2018-06-09T11:23:21.701Z,17.96
2018-06-09T11:25:49.529Z,18.16
2018-06-09T11:28:17.423Z,17.44
2018-06-09T11:30:45.385Z,17.65
2018-06-09T11:33:13.198Z,17.77
2018-06-09T11:35:41.061Z,17.57
2018-06-09T11:38:09.008Z,17.04
2018-06-09T11:40:36.885Z,17.91
2018-06-09T11:43:04.815Z,18.07
2018-06-09T11:45:32.712Z,17.33
2018-06-09T11:48:00.553Z,18.14
2018-06-09T11:50:28.424Z,17.37
2018-06-09T11:52:56.220Z,16.46
2018-06-09T11:55:24.125Z,17.18
2018-06-09T11:57:51.993Z,17.37
2018-06-09T12:00:20.201Z,17.82
2018-06-09T12:02:48.060Z,17.85
2018-06-09T12:05:15.948Z,18.01
2018-06-09T12:07:43.780Z,18.31
2018-06-09T12:10:11.660Z,17.42
2018-06-09T12:12:39.528Z,17.50
2018-06-09T12:15:07.398Z,16.95
2018-06-09T12:17:35.225Z,18.23
2018-06-09T12:20:03.342Z,17.13
2018-06-09T12:22:31.240Z,18.38
2018-06-09T12:24:59.569Z,18.46
2018-06-09T12:27:27.400Z,18.20
2018-06-09T12:29:55.357Z,17.90
2018-06-09T12:32:23.404Z,17.95
2018-06-09T12:34:51.266Z,18.04
2018-06-09T12:37:19.173Z,17.31
2018-06-09T12:39:47.021Z,18.48
2018-06-09T12:42:15.134Z,18.06
2018-06-09T12:44:43.058Z,17.84
2018-06-09T12:47:11.185Z,18.23
2018-06-09T12:49:39.112Z,16.37
2018-06-09T12:52:06.900Z,17.11
2018-06-09T12:54:34.807Z,18.51
2018-06-09T12:57:02.744Z,17.19
2018-06-09T12:59:30.837Z,19.00
2018-06-09T13:01:58.697Z,18.47
2018-06-09T13:04:26.632Z,18.53
2018-06-09T13:06:54.520Z,19.04
2018-06-09T13:09:22.616Z,18.16
2018-06-09T13:11:50.629Z,19.38
2018-06-09T13:14:18.534Z,18.70
2018-06-09T13:16:46.616Z,19.60
2018-06-09T13:19:15.854Z,19.33
2018-06-09T13:21:44.009Z,20.13
2018-06-09T13:24:11.898Z,20.18
2018-06-09T13:26:39.898Z,21.40
2018-06-09T13:29:07.920Z,20.77
2018-06-09T13:31:35.892Z,21.53
2018-06-09T13:34:03.797Z,22.65
2018-06-09T13:36:31.586Z,22.77
2018-06-09T13:38:59.401Z,22.25
2018-06-09T13:41:27.292Z,22.58
2018-06-09T13:43:55.258Z,23.44
2018-06-09T13:46:23.088Z,22.41
2018-06-09T13:48:50.871Z,24.07
2018-06-09T13:51:18.833Z,24.21
2018-06-09T13:53:46.729Z,24.14
2018-06-09T13:56:14.576Z,23.67
2018-06-09T13:58:42.523Z,23.98
2018-06-09T14:01:10.416Z,24.80
2018-06-09T14:03:38.345Z,24.89
2018-06-09T14:06:06.279Z,22.35
2018-06-09T14:08:34.152Z,21.67
2018-06-09T14:11:02.042Z,23.65
2018-06-09T14:13:29.898Z,23.68
2018-06-09T14:15:57.780Z,22.89
2018-06-09T14:18:25.646Z,24.47
2018-06-09T14:20:53.525Z,25.69
2018-06-09T14:23:21.447Z,24.54
2018-06-09T14:25:49.284Z,25.93
2018-06-09T14:28:17.200Z,26.44
2018-06-09T14:30:45.038Z,26.72
2018-06-09T14:33:13.008Z,26.82
2018-06-09T14:35:40.833Z,28.34
2018-06-09T14:38:08.705Z,27.46
2018-06-09T14:40:36.626Z,26.77
2018-06-09T14:43:04.728Z,27.08
2018-06-09T14:45:32.807Z,26.61
2018-06-09T14:48:00.673Z,27.11
2018-06-09T14:50:29.567Z,27.73
2018-06-09T14:52:57.493Z,26.64
2018-06-09T14:55:25.329Z,26.17
2018-06-09T14:57:53.183Z,26.58
2018-06-09T15:00:21.030Z,27.75
2018-06-09T15:02:48.933Z,27.82
2018-06-09T15:05:16.836Z,26.07
2018-06-09T15:07:44.616Z,28.25
2018-06-09T15:10:12.416Z,26.86
2018-06-09T15:12:40.292Z,26.14
2018-06-09T15:15:08.208Z,26.96
2018-06-09T15:17:36.061Z,27.20
2018-06-09T15:20:03.983Z,27.85
2018-06-09T15:22:31.833Z,27.78
2018-06-09T15:24:59.702Z,28.27
2018-06-09T15:27:27.569Z,27.42
2018-06-09T15:29:55.417Z,27.21
2018-06-09T15:32:23.308Z,25.58
2018-06-09T15:34:51.245Z,27.24
2018-06-09T15:37:19.124Z,27.18
2018-06-09T15:39:47.017Z,26.58
2018-06-09T15:42:14.874Z,26.84
2018-06-09T15:44:42.768Z,27.31
2018-06-09T15:47:11.731Z,28.20
2018-06-09T15:49:39.844Z,28.27
2018-06-09T15:52:07.805Z,28.97
2018-06-09T15:54:35.685Z,30.20
2018-06-09T15:57:03.581Z,30.10
2018-06-09T15:59:31.460Z,30.08
2018-06-09T16:01:59.312Z,30.30
2018-06-09T16:04:27.228Z,30.49
2018-06-09T16:06:55.102Z,29.96
2018-06-09T16:09:22.941Z,31.25
2018-06-09T16:11:50.851Z,31.41
2018-06-09T16:14:18.757Z,31.79
2018-06-09T16:16:46.641Z,32.87
2018-06-09T16:19:14.482Z,33.43
2018-06-09T16:21:43.281Z,33.29
2018-06-09T16:24:11.677Z,34.06
2018-06-09T16:26:39.750Z,33.36
2018-06-09T16:29:08.039Z,33.43
2018-06-09T16:31:36.315Z,33.47
2018-06-09T16:34:04.265Z,34.11
2018-06-09T16:36:32.205Z,34.86
2018-06-09T16:39:00.138Z,36.07
2018-06-09T16:41:28.014Z,36.34
2018-06-09T16:43:55.911Z,36.79
2018-06-09T16:46:23.805Z,36.96
2018-06-09T16:48:51.701Z,36.69
2018-06-09T16:51:19.528Z,36.21
2018-06-09T16:53:47.388Z,36.74
2018-06-09T16:56:15.309Z,37.23
2018-06-09T16:58:43.200Z,37.70
2018-06-09T17:01:11.100Z,37.85
2018-06-09T17:03:38.849Z,37.98
2018-06-09T17:06:06.729Z,38.22
2018-06-09T17:08:34.648Z,37.65
2018-06-09T17:11:02.548Z,37.47
2018-06-09T17:13:30.518Z,37.94
2018-06-09T17:15:58.468Z,38.08
2018-06-09T17:18:26.565Z,38.19
2018-06-09T17:20:54.809Z,38.16
2018-06-09T17:23:22.749Z,37.10
2018-06-09T17:25:50.682Z,36.67
2018-06-09T17:28:18.541Z,37.44
2018-06-09T17:30:46.416Z,36.90
2018-06-09T17:33:14.409Z,37.34
2018-06-09T17:35:42.338Z,37.45
2018-06-09T17:38:10.238Z,37.50
2018-06-09T17:40:38.112Z,37.18
2018-06-09T17:43:06.003Z,36.68
2018-06-09T17:45:33.859Z,36.22
2018-06-09T17:48:01.749Z,37.38
2018-06-09T17:50:32.754Z,39.46
2018-06-09T17:53:00.703Z,39.31
2018-06-09T17:55:28.578Z,38.34
2018-06-09T17:57:57.601Z,38.46
2018-06-09T18:00:25.535Z,40.55
2018-06-09T18:02:54.413Z,41.37
2018-06-09T18:05:22.383Z,42.46
2018-06-09T18:07:50.314Z,42.51
2018-06-09T18:10:18.269Z,43.45
2018-06-09T18:12:46.197Z,44.57
2018-06-09T18:15:14.124Z,44.94
2018-06-09T18:17:42.035Z,47.29
2018-06-09T18:20:10.753Z,54.47
2018-06-09T18:22:38.736Z,57.19
2018-06-09T18:25:06.653Z,62.38
2018-06-09T18:27:34.528Z,62.28
2018-06-09T18:30:02.437Z,63.03
2018-06-09T18:32:30.226Z,64.90
2018-06-09T18:34:58.133Z,66.67
2018-06-09T18:37:26.538Z,67.74
2018-06-09T18:39:54.384Z,69.25
2018-06-09T18:42:22.320Z,72.97
2018-06-09T18:44:50.190Z,72.80
2018-06-09T18:47:18.074Z,72.98
2018-06-09T18:49:45.888Z,74.47
2018-06-09T18:52:13.764Z,72.75
2018-06-09T18:54:41.582Z,73.89
2018-06-09T18:57:09.441Z,73.25
2018-06-09T18:59:37.277Z,77.60
2018-06-09T19:02:05.263Z,75.82
2018-06-09T19:04:33.113Z,75.12
2018-06-09T19:07:00.957Z,78.84
2018-06-09T19:09:28.789Z,77.79
2018-06-09T19:11:56.611Z,77.08
2018-06-09T19:14:24.523Z,78.77
2018-06-09T19:16:52.329Z,77.68
2018-06-09T19:19:20.220Z,79.24
2018-06-09T19:21:48.128Z,79.37
2018-06-09T19:24:16.049Z,79.96
2018-06-09T19:26:44.727Z,79.54
2018-06-09T19:29:12.773Z,79.62
2018-06-09T19:31:40.666Z,79.10
2018-06-09T19:34:08.498Z,75.56
2018-06-09T19:36:36.411Z,78.19
2018-06-09T19:39:07.332Z,75.51
2018-06-09T19:41:35.847Z,74.65
2018-06-09T19:44:03.770Z,76.56
2018-06-09T19:46:31.693Z,74.90
2018-06-09T19:49:00.237Z,73.34
2018-06-09T19:51:28.181Z,75.45
2018-06-09T19:53:56.037Z,71.58
2018-06-09T19:56:23.981Z,73.22
2018-06-09T19:58:51.832Z,75.23
2018-06-09T20:01:19.672Z,75.01
2018-06-09T20:03:47.469Z,72.96
2018-06-09T20:06:15.375Z,73.38
2018-06-09T20:08:43.269Z,74.82
2018-06-09T20:11:11.153Z,72.30
2018-06-09T20:13:39.081Z,72.18
2018-06-09T20:16:06.929Z,72.21
2018-06-09T20:18:34.748Z,72.68
2018-06-09T20:21:02.633Z,71.09
2018-06-09T20:23:30.525Z,73.50
2018-06-09T20:26:03.785Z,71.13
2018-06-09T20:28:32.297Z,70.28
2018-06-09T20:31:00.430Z,74.64
2018-06-09T20:33:28.465Z,70.44
2018-06-09T20:35:56.449Z,76.67
2018-06-09T20:38:24.337Z,73.95
2018-06-09T20:40:52.333Z,73.80
2018-06-09T20:43:20.237Z,77.72
2018-06-09T20:45:48.152Z,73.21
2018-06-09T20:48:16.025Z,71.02
2018-06-09T20:50:43.918Z,71.65
2018-06-09T20:53:11.861Z,74.08
2018-06-09T20:55:39.828Z,76.00
2018-06-09T20:58:07.708Z,71.33
2018-06-09T21:00:35.501Z,73.67
2018-06-09T21:03:03.600Z,77.94
2018-06-09T21:05:31.632Z,76.31
2018-06-09T21:07:59.445Z,72.15
2018-06-09T21:10:27.377Z,73.17
2018-06-09T21:12:55.229Z,75.80
2018-06-09T21:15:23.073Z,78.50
2018-06-09T21:17:50.887Z,76.38
2018-06-09T21:20:18.803Z,80.47
2018-06-09T21:22:46.689Z,73.97
2018-06-09T21:25:14.589Z,74.10
2018-06-09T21:27:48.273Z,76.36
2018-06-09T21:30:17.227Z,72.32
2018-06-09T21:32:52.634Z,75.01
2018-06-09T21:35:43.137Z,78.59
2018-06-09T21:38:15.936Z,79.67
2018-06-09T21:40:48.668Z,80.40
2018-06-09T21:43:22.361Z,82.31
2018-06-09T21:45:50.848Z,83.43
2018-06-09T21:48:19.721Z,79.87
2018-06-09T21:50:47.959Z,77.36
2018-06-09T21:53:15.821Z,76.36
2018-06-09T21:55:43.783Z,80.29
2018-06-09T21:58:11.653Z,76.56
2018-06-09T22:00:39.523Z,74.04
2018-06-09T22:03:07.452Z,73.84
2018-06-09T22:05:35.421Z,78.10
2018-06-09T22:08:03.378Z,77.72
2018-06-09T22:10:31.204Z,80.48
2018-06-09T22:12:59.133Z,79.07
2018-06-09T22:15:27.002Z,78.69
2018-06-09T22:17:54.845Z,82.44
2018-06-09T22:20:22.755Z,78.92
2018-06-09T22:22:50.629Z,80.42
2018-06-09T22:25:24.079Z,82.49
2018-06-09T22:27:51.964Z,80.69
2018-06-09T22:30:19.829Z,81.88
2018-06-09T22:32:47.793Z,82.25
2018-06-09T22:35:15.754Z,80.85
2018-06-09T22:37:43.601Z,78.66
2018-06-09T22:40:11.449Z,81.27
2018-06-09T22:42:39.372Z,80.52
2018-06-09T22:45:07.248Z,81.68
2018-06-09T22:47:35.140Z,81.32
2018-06-09T22:50:03.078Z,79.55
2018-06-09T22:52:31.008Z,79.27
2018-06-09T22:54:58.880Z,81.00
2018-06-09T22:57:26.787Z,81.10
2018-06-09T22:59:54.680Z,80.14
2018-06-09T23:02:22.595Z,80.19
2018-06-09T23:04:50.400Z,81.05
2018-06-09T23:07:18.317Z,78.75
2018-06-09T23:09:46.181Z,76.99
2018-06-09T23:12:14.060Z,76.65
2018-06-09T23:14:41.854Z,77.35
2018-06-09T23:17:09.805Z,76.39
2018-06-09T23:19:37.648Z,80.43
2018-06-09T23:22:05.831Z,81.64
2018-06-09T23:24:33.686Z,75.54
2018-06-09T23:27:01.506Z,73.84
2018-06-09T23:29:29.477Z,77.78
2018-06-09T23:31:57.378Z,78.81
2018-06-09T23:34:25.257Z,81.63
2018-06-09T23:36:53.117Z,82.70
2018-06-09T23:39:20.937Z,80.75
2018-06-09T23:41:48.844Z,83.75
2018-06-09T23:44:16.713Z,82.51
2018-06-09T23:46:44.633Z,80.27
2018-06-09T23:49:12.509Z,79.87
2018-06-09T23:51:40.404Z,81.77
2018-06-09T23:54:08.287Z,80.90
2018-06-09T23:56:36.198Z,81.32
2018-06-09T23:59:04.062Z,81.60
